Time;durP1;ratioP1;P1;durP2;ratioP2;P2;SDS_P1;SDS_P2;PMS_P1;PMS_P2;Temp;Humidity;BMP_temperature;BMP_pressure;BME280_temperature;BME280_humidity;BME280_pressure;Samples;Min_cycle;Max_cycle;Signal;HPM_P1;HPM_P2
2023/09/27 00:00:34;;;;;;;20.88;17.48;;;;;;;;;;5044695;28;20513;-70
2023/09/27 00:03:01;;;;;;;21.25;17.58;;;;;;;;;;5046730;28;20033;-70
2023/09/27 00:05:28;;;;;;;21.75;17.15;;;;;;;;;;5042558;28;20042;-70
2023/09/27 00:07:54;;;;;;;19.42;16.73;;;;;;;;;;5040484;28;20398;-70
2023/09/27 00:10:20;;;;;;;20.73;16.02;;;;;;;;;;5046330;28;20045;-70
2023/09/27 00:12:46;;;;;;;18.38;16.10;;;;;;;;;;5031492;28;20044;-70
2023/09/27 00:15:12;;;;;;;21.52;18.13;;;;;;;;;;5043995;28;20522;-70
2023/09/27 00:17:39;;;;;;;19.58;16.17;;;;;;;;;;5023812;28;20783;-70
2023/09/27 00:20:06;;;;;;;21.83;17.05;;;;;;;;;;5050248;28;20037;-70
2023/09/27 00:22:32;;;;;;;24.30;18.70;;;;;;;;;;5052948;28;20529;-70
2023/09/27 00:24:59;;;;;;;22.83;17.98;;;;;;;;;;5048502;28;20072;-70
2023/09/27 00:27:26;;;;;;;24.20;19.05;;;;;;;;;;5029266;28;20048;-70
2023/09/27 00:29:52;;;;;;;23.75;18.67;;;;;;;;;;5045395;28;20615;-70
2023/09/27 00:32:18;;;;;;;22.52;17.95;;;;;;;;;;5025281;28;20045;-71
2023/09/27 00:34:44;;;;;;;23.65;18.60;;;;;;;;;;5023787;28;20076;-71
2023/09/27 00:37:10;;;;;;;23.95;18.27;;;;;;;;;;5021460;28;20498;-70
2023/09/27 00:39:36;;;;;;;21.45;18.67;;;;;;;;;;5042214;28;20107;-71
2023/09/27 00:42:02;;;;;;;23.83;19.23;;;;;;;;;;5044030;28;20033;-70
2023/09/27 00:44:28;;;;;;;21.23;18.75;;;;;;;;;;5042623;28;20474;-71
2023/09/27 00:46:54;;;;;;;24.15;18.58;;;;;;;;;;5046366;28;20040;-71
2023/09/27 00:49:21;;;;;;;25.85;18.80;;;;;;;;;;5026369;28;20037;-71
2023/09/27 00:51:47;;;;;;;28.67;20.08;;;;;;;;;;5020858;28;20564;-71
2023/09/27 00:54:14;;;;;;;20.48;17.52;;;;;;;;;;5041931;28;20115;-71
2023/09/27 00:56:40;;;;;;;12.90;10.52;;;;;;;;;;5047211;28;20128;-71
2023/09/27 00:59:07;;;;;;;12.90;10.90;;;;;;;;;;5042503;28;20040;-71
2023/09/27 01:01:33;;;;;;;15.05;11.80;;;;;;;;;;5037503;28;20121;-70
2023/09/27 01:03:59;;;;;;;16.95;14.07;;;;;;;;;;5047050;28;20033;-71
2023/09/27 01:06:25;;;;;;;22.00;18.10;;;;;;;;;;5042509;28;20037;-70
2023/09/27 01:08:51;;;;;;;23.95;19.08;;;;;;;;;;5038735;28;20052;-70
2023/09/27 01:11:18;;;;;;;27.15;22.48;;;;;;;;;;5038197;28;20073;-71
2023/09/27 01:13:44;;;;;;;25.35;20.10;;;;;;;;;;5040398;28;20033;-70
2023/09/27 01:16:10;;;;;;;27.00;21.00;;;;;;;;;;5025642;28;20045;-70
2023/09/27 01:18:37;;;;;;;28.55;20.90;;;;;;;;;;5048169;28;20103;-70
2023/09/27 01:21:03;;;;;;;24.77;20.70;;;;;;;;;;5051235;28;20109;-70
2023/09/27 01:23:29;;;;;;;28.05;21.75;;;;;;;;;;5035634;28;20033;-70
2023/09/27 01:25:58;;;;;;;27.67;22.65;;;;;;;;;;5042800;28;20148;-70
2023/09/27 01:28:24;;;;;;;26.45;22.45;;;;;;;;;;5048277;28;20045;-71
2023/09/27 01:30:50;;;;;;;26.45;21.20;;;;;;;;;;5046605;28;20040;-70
2023/09/27 01:33:16;;;;;;;28.40;21.83;;;;;;;;;;5033073;28;20080;-70
2023/09/27 01:35:43;;;;;;;28.75;21.27;;;;;;;;;;5041513;28;20044;-70
2023/09/27 01:38:10;;;;;;;27.83;22.08;;;;;;;;;;5049238;28;20049;-70
2023/09/27 01:40:40;;;;;;;27.85;21.58;;;;;;;;;;5034402;28;20045;-70
2023/09/27 01:43:06;;;;;;;29.63;22.87;;;;;;;;;;5050535;28;20442;-70
2023/09/27 01:45:32;;;;;;;25.75;21.05;;;;;;;;;;5049667;28;20040;-70
2023/09/27 01:47:59;;;;;;;26.10;21.17;;;;;;;;;;5044272;28;20499;-70
2023/09/27 01:50:25;;;;;;;32.20;25.40;;;;;;;;;;5032956;28;20487;-70
2023/09/27 01:52:55;;;;;;;26.40;22.83;;;;;;;;;;5034537;28;20124;-70
2023/09/27 01:55:22;;;;;;;33.13;25.37;;;;;;;;;;5041659;28;20120;-71
2023/09/27 01:57:48;;;;;;;28.23;21.27;;;;;;;;;;5041852;28;20045;-71
2023/09/27 02:00:15;;;;;;;27.15;21.92;;;;;;;;;;5043078;28;20435;-71
2023/09/27 02:02:44;;;;;;;29.95;21.98;;;;;;;;;;5046260;28;20037;-71
2023/09/27 02:05:10;;;;;;;27.55;22.40;;;;;;;;;;5022188;28;20038;-70
2023/09/27 02:07:40;;;;;;;26.35;21.98;;;;;;;;;;5046801;28;20401;-71
2023/09/27 02:10:10;;;;;;;29.92;22.55;;;;;;;;;;5052108;28;20414;-70
2023/09/27 02:12:39;;;;;;;22.45;18.27;;;;;;;;;;5052176;28;20582;-70
2023/09/27 02:15:05;;;;;;;25.98;21.75;;;;;;;;;;5046846;28;20469;-70
2023/09/27 02:17:31;;;;;;;28.10;22.42;;;;;;;;;;5089914;22;20044;-69
2023/09/27 02:19:57;;;;;;;30.65;22.98;;;;;;;;;;5079082;28;20036;-69
2023/09/27 02:22:23;;;;;;;29.05;23.23;;;;;;;;;;5086752;28;20090;-69
2023/09/27 02:24:49;;;;;;;28.75;22.27;;;;;;;;;;5091538;28;20534;-69
2023/09/27 02:27:16;;;;;;;29.00;22.98;;;;;;;;;;5091085;28;20043;-71
2023/09/27 02:29:42;;;;;;;29.83;22.98;;;;;;;;;;5081346;28;20068;-70
2023/09/27 02:32:08;;;;;;;26.20;20.95;;;;;;;;;;5071320;28;20129;-71
2023/09/27 02:34:35;;;;;;;27.42;21.48;;;;;;;;;;5090456;28;20032;-71
2023/09/27 02:37:01;;;;;;;28.40;22.05;;;;;;;;;;5079333;28;20034;-71
2023/09/27 02:39:28;;;;;;;25.90;21.17;;;;;;;;;;5084209;28;20036;-71
2023/09/27 02:41:56;;;;;;;28.17;22.30;;;;;;;;;;5084905;28;20048;-70
2023/09/27 02:44:22;;;;;;;31.58;24.00;;;;;;;;;;5089953;28;20481;-70
2023/09/27 02:46:48;;;;;;;27.83;21.98;;;;;;;;;;5091225;28;20066;-70
2023/09/27 02:49:14;;;;;;;20.42;16.58;;;;;;;;;;5080383;28;20485;-71
2023/09/27 02:51:41;;;;;;;25.20;20.35;;;;;;;;;;5090450;28;20119;-71
2023/09/27 02:54:07;;;;;;;32.95;24.35;;;;;;;;;;5087215;28;20032;-71
2023/09/27 02:56:33;;;;;;;29.95;23.08;;;;;;;;;;5090791;28;20161;-71
2023/09/27 02:58:59;;;;;;;23.02;17.95;;;;;;;;;;5081977;28;20127;-71
2023/09/27 03:01:25;;;;;;;22.42;16.83;;;;;;;;;;5083613;28;20036;-70
2023/09/27 03:03:52;;;;;;;23.30;15.55;;;;;;;;;;5061998;28;20032;-70
2023/09/27 03:06:19;;;;;;;22.48;18.15;;;;;;;;;;5074937;28;20097;-70
2023/09/27 03:08:45;;;;;;;22.45;19.20;;;;;;;;;;5088961;28;20072;-70
2023/09/27 03:11:12;;;;;;;25.27;20.55;;;;;;;;;;5088913;28;20047;-70
2023/09/27 03:13:38;;;;;;;28.00;22.80;;;;;;;;;;5089136;28;20478;-70
2023/09/27 03:16:04;;;;;;;29.63;22.80;;;;;;;;;;5085664;28;20530;-70
2023/09/27 03:18:33;;;;;;;29.52;23.63;;;;;;;;;;5090266;28;20035;-70
2023/09/27 03:20:59;;;;;;;34.92;25.40;;;;;;;;;;5090882;28;20038;-70
2023/09/27 03:23:28;;;;;;;32.58;26.23;;;;;;;;;;5090394;28;20047;-70
2023/09/27 03:25:56;;;;;;;32.15;24.65;;;;;;;;;;5088826;28;20038;-70
2023/09/27 03:28:22;;;;;;;35.15;25.60;;;;;;;;;;5084799;28;20071;-70
2023/09/27 03:30:48;;;;;;;29.98;23.80;;;;;;;;;;5078628;28;20036;-70
2023/09/27 03:33:14;;;;;;;32.15;23.77;;;;;;;;;;5067577;28;20048;-70
2023/09/27 03:35:41;;;;;;;30.17;23.80;;;;;;;;;;5089856;28;20055;-70
2023/09/27 03:38:07;;;;;;;29.90;23.25;;;;;;;;;;5091345;28;20075;-70
2023/09/27 03:40:33;;;;;;;35.08;24.88;;;;;;;;;;5091128;28;20041;-71
2023/09/27 03:42:59;;;;;;;30.85;22.40;;;;;;;;;;5080620;28;20056;-71
2023/09/27 03:45:25;;;;;;;26.58;20.67;;;;;;;;;;5090444;28;20093;-71
2023/09/27 03:47:51;;;;;;;25.30;19.85;;;;;;;;;;5090957;28;20417;-71
2023/09/27 03:50:17;;;;;;;25.75;20.98;;;;;;;;;;5088135;28;20055;-70
2023/09/27 03:52:44;;;;;;;24.10;19.42;;;;;;;;;;5077540;28;20497;-70
2023/09/27 03:55:13;;;;;;;23.88;18.40;;;;;;;;;;5073548;28;20398;-70
2023/09/27 03:57:40;;;;;;;32.95;25.40;;;;;;;;;;5089944;28;20052;-70
2023/09/27 04:00:11;;;;;;;21.30;18.13;;;;;;;;;;5089225;28;20035;-70
2023/09/27 04:02:37;;;;;;;30.20;22.10;;;;;;;;;;5089048;28;20117;-70
2023/09/27 04:05:04;;;;;;;27.23;21.08;;;;;;;;;;5095677;28;20064;-70
2023/09/27 04:07:30;;;;;;;23.92;19.92;;;;;;;;;;5084252;28;20040;-70
2023/09/27 04:09:56;;;;;;;24.98;20.20;;;;;;;;;;5090520;28;20035;-70
2023/09/27 04:12:22;;;;;;;26.17;20.65;;;;;;;;;;5074022;28;20040;-70
2023/09/27 04:14:48;;;;;;;27.75;21.17;;;;;;;;;;5090585;28;20086;-70
2023/09/27 04:17:14;;;;;;;16.05;12.30;;;;;;;;;;5087488;28;20466;-70
2023/09/27 04:19:40;;;;;;;15.65;12.75;;;;;;;;;;5073209;28;20044;-70
2023/09/27 04:22:06;;;;;;;25.40;20.02;;;;;;;;;;5081226;28;20058;-70
2023/09/27 04:24:32;;;;;;;35.10;24.08;;;;;;;;;;5092443;28;20032;-70
2023/09/27 04:26:59;;;;;;;30.40;23.50;;;;;;;;;;5090536;28;20128;-70
2023/09/27 04:29:26;;;;;;;30.10;22.95;;;;;;;;;;5088966;28;20088;-70
2023/09/27 04:31:52;;;;;;;34.25;25.00;;;;;;;;;;5089324;28;20046;-70
2023/09/27 04:34:18;;;;;;;35.13;25.90;;;;;;;;;;5077212;28;20048;-71
2023/09/27 04:36:44;;;;;;;36.72;26.85;;;;;;;;;;5091865;28;20077;-70
2023/09/27 04:39:18;;;;;;;25.77;20.50;;;;;;;;;;5082261;28;20051;-70
2023/09/27 04:41:46;;;;;;;25.55;21.00;;;;;;;;;;5087641;28;20047;-70
2023/09/27 04:44:12;;;;;;;23.38;18.75;;;;;;;;;;5070023;28;20054;-70
2023/09/27 04:46:38;;;;;;;19.55;16.05;;;;;;;;;;5075438;28;20114;-70
2023/09/27 04:49:04;;;;;;;17.50;14.70;;;;;;;;;;5094263;28;20185;-70
2023/09/27 04:51:30;;;;;;;23.60;18.92;;;;;;;;;;5088613;28;20126;-70
2023/09/27 04:54:00;;;;;;;23.65;18.83;;;;;;;;;;5068353;28;20127;-70
2023/09/27 04:56:27;;;;;;;18.40;15.57;;;;;;;;;;5082570;28;20037;-70
2023/09/27 04:58:53;;;;;;;10.32;9.40;;;;;;;;;;5088140;28;20040;-70
2023/09/27 05:01:19;;;;;;;9.77;8.93;;;;;;;;;;5078188;28;20095;-70
2023/09/27 05:03:45;;;;;;;13.10;11.13;;;;;;;;;;5093058;28;20043;-70
2023/09/27 05:06:11;;;;;;;13.57;12.18;;;;;;;;;;5094269;28;20032;-70
2023/09/27 05:08:37;;;;;;;15.57;13.38;;;;;;;;;;5094195;28;20031;-70
2023/09/27 05:11:03;;;;;;;17.75;15.57;;;;;;;;;;5075097;28;20043;-70
2023/09/27 05:13:29;;;;;;;15.35;13.52;;;;;;;;;;5077381;28;20142;-70
2023/09/27 05:15:55;;;;;;;13.18;11.70;;;;;;;;;;5094019;28;20051;-70
2023/09/27 05:18:24;;;;;;;19.13;15.82;;;;;;;;;;5093790;28;20040;-70
2023/09/27 05:20:50;;;;;;;21.60;18.25;;;;;;;;;;5094221;28;20043;-70
2023/09/27 05:23:16;;;;;;;23.08;18.05;;;;;;;;;;5091808;28;20189;-70
2023/09/27 05:25:42;;;;;;;19.63;16.50;;;;;;;;;;5081034;28;20050;-70
2023/09/27 05:28:09;;;;;;;18.05;15.60;;;;;;;;;;5090450;28;20032;-70
2023/09/27 05:30:35;;;;;;;18.85;16.00;;;;;;;;;;5093024;28;20123;-70
2023/09/27 05:33:04;;;;;;;20.13;16.42;;;;;;;;;;5091696;28;20445;-70
2023/09/27 05:35:30;;;;;;;20.58;16.33;;;;;;;;;;5093833;28;20494;-70
2023/09/27 05:37:57;;;;;;;19.23;15.75;;;;;;;;;;5093336;28;20132;-70
2023/09/27 05:40:24;;;;;;;19.23;17.13;;;;;;;;;;5093512;28;20048;-70
2023/09/27 05:42:50;;;;;;;22.35;17.13;;;;;;;;;;5089959;28;20056;-70
2023/09/27 05:45:16;;;;;;;21.10;16.83;;;;;;;;;;5090158;28;20075;-70
2023/09/27 05:47:42;;;;;;;21.48;17.60;;;;;;;;;;5092187;28;20040;-71
2023/09/27 05:50:09;;;;;;;23.33;19.17;;;;;;;;;;5090306;28;20040;-71
2023/09/27 05:52:35;;;;;;;25.95;21.30;;;;;;;;;;5086002;28;20032;-70
2023/09/27 05:55:05;;;;;;;23.77;21.17;;;;;;;;;;5093272;28;20051;-70
2023/09/27 05:57:31;;;;;;;27.27;20.45;;;;;;;;;;5079221;28;20441;-70
2023/09/27 05:59:58;;;;;;;22.38;19.17;;;;;;;;;;5090820;28;20169;-70
2023/09/27 06:02:30;;;;;;;24.15;19.75;;;;;;;;;;5089738;28;20118;-70
2023/09/27 06:04:56;;;;;;;25.00;20.23;;;;;;;;;;5090500;28;20133;-70
2023/09/27 06:07:22;;;;;;;28.50;22.27;;;;;;;;;;5086260;28;20187;-71
2023/09/27 06:09:49;;;;;;;38.25;26.35;;;;;;;;;;5087951;28;20050;-70
2023/09/27 06:12:15;;;;;;;34.05;26.17;;;;;;;;;;5089475;28;20509;-70
2023/09/27 06:14:44;;;;;;;33.28;25.92;;;;;;;;;;5088167;28;20146;-70
2023/09/27 06:17:15;;;;;;;35.03;25.77;;;;;;;;;;5066537;28;20035;-70
2023/09/27 06:19:41;;;;;;;;;;;;;;;;;;5086403;28;20040;-70
2023/09/27 06:22:07;;;;;;;30.75;24.63;;;;;;;;;;5090583;28;19916;-70
2023/09/27 06:24:33;;;;;;;32.00;23.85;;;;;;;;;;5091399;28;20139;-70
2023/09/27 06:26:59;;;;;;;33.75;25.05;;;;;;;;;;5078195;28;20070;-70
2023/09/27 06:29:26;;;;;;;32.92;25.80;;;;;;;;;;5070643;28;20079;-69
2023/09/27 06:31:53;;;;;;;37.50;28.30;;;;;;;;;;5073210;28;20046;-70
2023/09/27 06:34:19;;;;;;;37.35;28.40;;;;;;;;;;5091347;28;20082;-71
2023/09/27 06:36:48;;;;;;;39.00;29.48;;;;;;;;;;5090365;28;20044;-70
2023/09/27 06:39:15;;;;;;;46.97;32.22;;;;;;;;;;5089797;28;20036;-70
2023/09/27 06:41:41;;;;;;;40.97;30.88;;;;;;;;;;5088885;28;20435;-70
2023/09/27 06:44:07;;;;;;;41.33;31.60;;;;;;;;;;5088261;28;20028;-70
2023/09/27 06:46:36;;;;;;;39.88;28.35;;;;;;;;;;5087827;28;20100;-70
2023/09/27 06:49:03;;;;;;;47.03;34.67;;;;;;;;;;5085131;28;20134;-70
2023/09/27 06:51:30;;;;;;;48.92;35.63;;;;;;;;;;5080300;28;20068;-70
2023/09/27 06:53:56;;;;;;;52.80;35.25;;;;;;;;;;5081698;28;20040;-70
2023/09/27 06:56:22;;;;;;;49.75;35.85;;;;;;;;;;5078014;28;20028;-70
2023/09/27 06:58:52;;;;;;;51.50;36.33;;;;;;;;;;5086056;28;20041;-70
2023/09/27 07:01:19;;;;;;;53.72;37.45;;;;;;;;;;5086502;28;20512;-70
2023/09/27 07:03:45;;;;;;;51.20;36.30;;;;;;;;;;5086089;28;20177;-70
2023/09/27 07:06:11;;;;;;;53.20;38.00;;;;;;;;;;5086916;28;20028;-70
2023/09/27 07:08:37;;;;;;;52.83;37.22;;;;;;;;;;5078910;28;20063;-70
2023/09/27 07:11:08;;;;;;;52.30;36.92;;;;;;;;;;5090159;28;20039;-70
2023/09/27 07:13:34;;;;;;;50.97;36.70;;;;;;;;;;5088728;28;20068;-70
2023/09/27 07:16:03;;;;;;;53.03;37.88;;;;;;;;;;5090791;28;20501;-70
2023/09/27 07:18:29;;;;;;;51.40;38.00;;;;;;;;;;5075157;28;20044;-70
2023/09/27 07:20:55;;;;;;;54.70;38.30;;;;;;;;;;5090419;28;20036;-70
2023/09/27 07:23:21;;;;;;;53.70;38.42;;;;;;;;;;5089656;28;20396;-70
2023/09/27 07:25:47;;;;;;;51.42;37.28;;;;;;;;;;5079598;28;20035;-70
2023/09/27 07:28:14;;;;;;;52.00;37.65;;;;;;;;;;5081893;28;20043;-70
2023/09/27 07:30:40;;;;;;;53.70;37.20;;;;;;;;;;5082597;28;20058;-72
2023/09/27 07:33:08;;;;;;;53.90;38.08;;;;;;;;;;5070705;28;20471;-72
2023/09/27 07:35:35;;;;;;;51.65;37.80;;;;;;;;;;5083982;28;20511;-71
2023/09/27 07:38:01;;;;;;;49.92;35.78;;;;;;;;;;5071866;28;20054;-72
2023/09/27 07:40:27;;;;;;;46.10;35.20;;;;;;;;;;5091136;28;20101;-72
2023/09/27 07:42:53;;;;;;;49.80;36.63;;;;;;;;;;5083635;28;20063;-72
2023/09/27 07:45:25;;;;;;;55.35;37.33;;;;;;;;;;5083243;28;20057;-71
2023/09/27 07:47:52;;;;;;;48.13;36.80;;;;;;;;;;5083339;28;20046;-71
2023/09/27 07:50:18;;;;;;;53.70;38.47;;;;;;;;;;5081308;28;20512;-71
2023/09/27 07:52:44;;;;;;;52.25;36.28;;;;;;;;;;5088502;28;20036;-71
2023/09/27 07:55:14;;;;;;;53.22;37.80;;;;;;;;;;5079579;28;20039;-71
2023/09/27 07:57:43;;;;;;;52.50;38.17;;;;;;;;;;5067795;28;20044;-71
2023/09/27 08:00:10;;;;;;;51.92;36.70;;;;;;;;;;5088606;28;20040;-71
2023/09/27 08:02:36;;;;;;;50.40;35.72;;;;;;;;;;5085464;28;20158;-71
2023/09/27 08:05:09;;;;;;;53.83;37.58;;;;;;;;;;5071307;28;20393;-71
2023/09/27 08:07:36;;;;;;;50.42;35.42;;;;;;;;;;5091370;28;20067;-71
2023/09/27 08:10:02;;;;;;;48.08;36.58;;;;;;;;;;5089514;28;20484;-71
2023/09/27 08:12:31;;;;;;;48.53;36.70;;;;;;;;;;5091231;28;20036;-71
2023/09/27 08:14:58;;;;;;;50.05;36.40;;;;;;;;;;5071601;28;20044;-71
2023/09/27 08:17:24;;;;;;;47.38;35.42;;;;;;;;;;5129788;22;20048;-69
2023/09/27 08:19:49;;;;;;;52.05;36.97;;;;;;;;;;5090162;28;20496;-69
2023/09/27 08:22:15;;;;;;;50.42;37.47;;;;;;;;;;5090640;28;20032;-69
2023/09/27 08:24:42;;;;;;;51.88;37.65;;;;;;;;;;5089587;28;20036;-69
2023/09/27 08:27:08;;;;;;;51.20;37.30;;;;;;;;;;5090434;28;20043;-69
2023/09/27 08:29:34;;;;;;;53.70;36.83;;;;;;;;;;5090759;28;20115;-69
2023/09/27 08:32:00;;;;;;;51.13;36.22;;;;;;;;;;5090558;28;20099;-69
2023/09/27 08:34:27;;;;;;;53.85;37.92;;;;;;;;;;5088547;28;20494;-68
2023/09/27 08:36:53;;;;;;;50.25;37.58;;;;;;;;;;5091077;28;20035;-68
2023/09/27 08:39:20;;;;;;;48.85;36.63;;;;;;;;;;5093820;28;20510;-68
2023/09/27 08:41:46;;;;;;;49.05;36.03;;;;;;;;;;5094109;28;20066;-68
2023/09/27 08:44:12;;;;;;;51.20;37.47;;;;;;;;;;5092174;28;20028;-68
2023/09/27 08:46:39;;;;;;;51.58;37.35;;;;;;;;;;5094408;28;20028;-68
2023/09/27 08:49:08;;;;;;;52.75;35.30;;;;;;;;;;5094304;28;20119;-68
2023/09/27 08:51:35;;;;;;;46.60;35.33;;;;;;;;;;5093300;28;20040;-68
2023/09/27 08:54:02;;;;;;;48.88;35.40;;;;;;;;;;5092223;28;20052;-68
2023/09/27 08:56:28;;;;;;;44.33;34.47;;;;;;;;;;5094214;28;20040;-68
2023/09/27 08:58:54;;;;;;;44.10;34.38;;;;;;;;;;5093963;28;20044;-68
2023/09/27 09:01:21;;;;;;;48.03;35.17;;;;;;;;;;5093835;28;20036;-68
2023/09/27 09:03:47;;;;;;;47.85;35.05;;;;;;;;;;5092545;28;20054;-68
2023/09/27 09:06:15;;;;;;;44.83;33.55;;;;;;;;;;5093286;28;20032;-68
2023/09/27 09:08:46;;;;;;;47.25;32.92;;;;;;;;;;5093470;28;20512;-68
2023/09/27 09:11:13;;;;;;;51.63;34.22;;;;;;;;;;5094118;28;20050;-68
2023/09/27 09:13:54;;;;;;;44.50;32.78;;;;;;;;;;5092049;28;20044;-68
2023/09/27 09:16:23;;;;;;;;;;;;;;;;;;5093105;28;20068;-68
2023/09/27 09:18:51;;;;;;;45.65;32.80;;;;;;;;;;5093040;28;19924;-68
2023/09/27 09:21:19;;;;;;;49.58;34.55;;;;;;;;;;5093695;28;20051;-68
2023/09/27 09:23:49;;;;;;;44.80;33.35;;;;;;;;;;5087922;28;20481;-68
2023/09/27 09:26:26;;;;;;;41.95;31.55;;;;;;;;;;5074939;28;20068;-68
2023/09/27 09:28:56;;;;;;;43.75;31.15;;;;;;;;;;5090014;28;20451;-68
2023/09/27 09:31:26;;;;;;;41.78;32.10;;;;;;;;;;5093527;28;20044;-68
2023/09/27 09:34:11;;;;;;;42.42;32.35;;;;;;;;;;5091826;28;20520;-68
2023/09/27 09:36:37;;;;;;;42.30;32.30;;;;;;;;;;5092005;28;20036;-68
2023/09/27 09:39:13;;;;;;;42.90;32.28;;;;;;;;;;5093369;28;20052;-68
2023/09/27 09:41:49;;;;;;;44.25;31.52;;;;;;;;;;5092768;28;20068;-68
2023/09/27 09:44:20;;;;;;;46.47;33.95;;;;;;;;;;5091579;28;20319;-68
2023/09/27 09:46:47;;;;;;;44.65;33.45;;;;;;;;;;5088608;28;20036;-68
2023/09/27 09:49:16;;;;;;;45.45;32.25;;;;;;;;;;5092992;28;20096;-68
2023/09/27 09:51:50;;;;;;;42.17;31.23;;;;;;;;;;5092808;28;20043;-68
2023/09/27 09:54:20;;;;;;;41.58;31.27;;;;;;;;;;5091428;28;20405;-69
2023/09/27 09:56:49;;;;;;;38.00;29.48;;;;;;;;;;5088222;28;20393;-69
2023/09/27 09:59:20;;;;;;;41.63;30.80;;;;;;;;;;5092874;28;20100;-69
2023/09/27 10:01:46;;;;;;;41.78;31.30;;;;;;;;;;5088252;28;20477;-69
2023/09/27 10:04:12;;;;;;;40.17;30.70;;;;;;;;;;5089509;28;20504;-69
2023/09/27 10:06:40;;;;;;;45.38;31.80;;;;;;;;;;5091946;28;20035;-69
2023/09/27 10:09:13;;;;;;;44.92;31.80;;;;;;;;;;5092846;28;20048;-69
2023/09/27 10:11:39;;;;;;;42.00;31.77;;;;;;;;;;5092454;28;20134;-69
2023/09/27 10:14:06;;;;;;;41.65;31.70;;;;;;;;;;5090619;28;20039;-69
2023/09/27 10:16:32;;;;;;;40.55;30.67;;;;;;;;;;5090576;28;20039;-69
2023/09/27 10:19:01;;;;;;;37.90;30.17;;;;;;;;;;5089588;28;20044;-69
2023/09/27 10:21:27;;;;;;;37.65;29.85;;;;;;;;;;5092373;28;20036;-69
2023/09/27 10:23:53;;;;;;;40.58;30.23;;;;;;;;;;5090774;28;20444;-69
2023/09/27 10:26:37;;;;;;;36.15;26.88;;;;;;;;;;5088792;28;20072;-69
2023/09/27 10:29:03;;;;;;;36.53;28.65;;;;;;;;;;5089961;28;20158;-69
2023/09/27 10:31:37;;;;;;;39.88;28.33;;;;;;;;;;5091958;28;20536;-69
2023/09/27 10:34:04;;;;;;;39.03;28.40;;;;;;;;;;5090478;28;20043;-69
2023/09/27 10:36:31;;;;;;;36.95;26.70;;;;;;;;;;5091882;28;20068;-69
2023/09/27 10:38:57;;;;;;;35.28;26.52;;;;;;;;;;5092300;28;20318;-69
2023/09/27 10:41:32;;;;;;;36.47;25.08;;;;;;;;;;5091499;28;20114;-69
2023/09/27 10:43:58;;;;;;;34.03;25.98;;;;;;;;;;5090228;28;20055;-69
2023/09/27 10:46:24;;;;;;;33.28;25.60;;;;;;;;;;5091599;28;20028;-69
2023/09/27 10:48:55;;;;;;;33.00;24.70;;;;;;;;;;5086118;28;20048;-69
2023/09/27 10:51:26;;;;;;;34.13;24.57;;;;;;;;;;5091879;28;20044;-69
2023/09/27 10:53:52;;;;;;;27.77;21.58;;;;;;;;;;5091019;28;20087;-69
2023/09/27 10:56:18;;;;;;;29.95;22.27;;;;;;;;;;5091255;28;20071;-69
2023/09/27 10:58:45;;;;;;;27.98;21.65;;;;;;;;;;5086706;28;20082;-69
2023/09/27 11:01:11;;;;;;;29.17;22.30;;;;;;;;;;5090584;28;20097;-69
2023/09/27 11:03:38;;;;;;;29.33;23.10;;;;;;;;;;5087549;28;20040;-69
2023/09/27 11:06:10;;;;;;;28.63;22.92;;;;;;;;;;5090797;28;20074;-69
2023/09/27 11:08:36;;;;;;;26.30;21.90;;;;;;;;;;5091587;28;20040;-69
2023/09/27 11:11:02;;;;;;;27.20;21.35;;;;;;;;;;5091432;28;20044;-69
2023/09/27 11:13:29;;;;;;;27.77;19.95;;;;;;;;;;5089995;28;20070;-69
2023/09/27 11:16:06;;;;;;;30.63;19.10;;;;;;;;;;5076306;28;20126;-69
2023/09/27 11:18:34;;;;;;;27.33;20.55;;;;;;;;;;5091553;28;20044;-69
2023/09/27 11:21:09;;;;;;;26.48;19.73;;;;;;;;;;5090732;28;20063;-69
2023/09/27 11:23:54;;;;;;;27.63;20.80;;;;;;;;;;5090099;28;20067;-69
2023/09/27 11:26:21;;;;;;;31.20;20.73;;;;;;;;;;5087320;28;20040;-69
2023/09/27 11:28:57;;;;;;;29.83;21.92;;;;;;;;;;5090286;28;20040;-69
2023/09/27 11:31:23;;;;;;;27.27;20.67;;;;;;;;;;5090912;28;20502;-69
2023/09/27 11:33:50;;;;;;;27.98;21.73;;;;;;;;;;5091640;28;20075;-69
2023/09/27 11:36:16;;;;;;;28.38;21.30;;;;;;;;;;5090599;28;20123;-69
2023/09/27 11:38:51;;;;;;;29.02;20.88;;;;;;;;;;5090246;28;20441;-69
2023/09/27 11:41:20;;;;;;;28.00;21.20;;;;;;;;;;5089894;28;20043;-69
2023/09/27 11:43:46;;;;;;;25.77;19.95;;;;;;;;;;5086609;28;20036;-69
2023/09/27 11:46:12;;;;;;;24.38;18.70;;;;;;;;;;5090735;28;20047;-69
2023/09/27 11:48:39;;;;;;;22.90;17.98;;;;;;;;;;5090709;28;20424;-69
2023/09/27 11:51:05;;;;;;;23.45;17.67;;;;;;;;;;5090688;28;20445;-69
2023/09/27 11:53:31;;;;;;;20.08;16.63;;;;;;;;;;5091498;28;20075;-69
2023/09/27 11:55:59;;;;;;;21.95;15.52;;;;;;;;;;5090579;28;20086;-69
2023/09/27 11:58:26;;;;;;;20.90;16.23;;;;;;;;;;5090767;28;20040;-69
2023/09/27 12:00:52;;;;;;;22.30;17.45;;;;;;;;;;5089740;28;20040;-69
2023/09/27 12:03:18;;;;;;;23.17;16.45;;;;;;;;;;5090767;28;20047;-69
2023/09/27 12:05:44;;;;;;;18.98;13.60;;;;;;;;;;5091103;28;20032;-69
2023/09/27 12:08:10;;;;;;;20.38;13.93;;;;;;;;;;5090470;28;20040;-69
2023/09/27 12:10:36;;;;;;;17.08;13.38;;;;;;;;;;5090056;28;20093;-69
2023/09/27 12:13:02;;;;;;;16.55;12.88;;;;;;;;;;5092420;28;20039;-69
2023/09/27 12:15:29;;;;;;;17.67;13.50;;;;;;;;;;5082892;28;20055;-69
2023/09/27 12:17:55;;;;;;;19.17;12.10;;;;;;;;;;5094035;28;20052;-69
2023/09/27 12:20:21;;;;;;;16.85;12.75;;;;;;;;;;5094072;28;20037;-69
2023/09/27 12:22:47;;;;;;;14.57;12.05;;;;;;;;;;5094908;28;20032;-69
2023/09/27 12:25:13;;;;;;;17.75;11.50;;;;;;;;;;5094320;28;20047;-69
2023/09/27 12:27:39;;;;;;;16.15;11.98;;;;;;;;;;5092206;28;20028;-69
2023/09/27 12:30:05;;;;;;;14.55;11.93;;;;;;;;;;5091577;28;20036;-69
2023/09/27 12:32:31;;;;;;;16.23;11.15;;;;;;;;;;5086589;28;20153;-69
2023/09/27 12:34:57;;;;;;;12.85;9.85;;;;;;;;;;5092691;28;20485;-69
2023/09/27 12:37:23;;;;;;;11.40;8.32;;;;;;;;;;5094127;28;20032;-69
2023/09/27 12:39:49;;;;;;;13.70;9.00;;;;;;;;;;5086040;28;20051;-69
2023/09/27 12:42:15;;;;;;;11.82;9.32;;;;;;;;;;5092604;28;20037;-69
2023/09/27 12:44:41;;;;;;;13.50;10.13;;;;;;;;;;5093561;28;20123;-69
2023/09/27 12:47:07;;;;;;;13.25;9.55;;;;;;;;;;5086608;28;20040;-69
2023/09/27 12:49:33;;;;;;;14.57;9.23;;;;;;;;;;5088599;28;20043;-69
2023/09/27 12:51:59;;;;;;;11.63;8.60;;;;;;;;;;5090534;28;20493;-69
2023/09/27 12:54:26;;;;;;;12.82;8.50;;;;;;;;;;5093353;28;20064;-69
2023/09/27 12:56:51;;;;;;;14.50;10.00;;;;;;;;;;5093118;28;20044;-69
2023/09/27 12:59:18;;;;;;;11.23;9.10;;;;;;;;;;5085238;28;20040;-69
2023/09/27 13:01:45;;;;;;;13.70;9.60;;;;;;;;;;5087812;28;20511;-69
2023/09/27 13:04:11;;;;;;;13.48;8.95;;;;;;;;;;5092798;28;20051;-69
2023/09/27 13:06:37;;;;;;;12.45;8.85;;;;;;;;;;5094249;28;20036;-69
2023/09/27 13:09:03;;;;;;;13.90;10.45;;;;;;;;;;5094157;28;20040;-69
2023/09/27 13:11:29;;;;;;;13.13;9.40;;;;;;;;;;5094104;28;20129;-69
2023/09/27 13:13:55;;;;;;;13.18;9.45;;;;;;;;;;5087513;28;20075;-69
2023/09/27 13:16:21;;;;;;;14.65;10.27;;;;;;;;;;5089443;28;20091;-69
2023/09/27 13:18:47;;;;;;;11.02;9.00;;;;;;;;;;5092985;28;20039;-69
2023/09/27 13:21:13;;;;;;;11.55;8.63;;;;;;;;;;5092841;28;20068;-69
2023/09/27 13:23:41;;;;;;;12.55;8.13;;;;;;;;;;5081031;28;20122;-69
2023/09/27 13:26:07;;;;;;;12.38;8.18;;;;;;;;;;5089412;28;20044;-69
2023/09/27 13:28:33;;;;;;;12.98;8.45;;;;;;;;;;5086283;28;20087;-69
2023/09/27 13:30:59;;;;;;;9.20;7.43;;;;;;;;;;5085259;28;20078;-69
2023/09/27 13:33:25;;;;;;;8.77;6.63;;;;;;;;;;5087322;28;20028;-69
2023/09/27 13:35:52;;;;;;;12.43;7.18;;;;;;;;;;5086390;28;20047;-69
2023/09/27 13:38:18;;;;;;;9.38;6.75;;;;;;;;;;5085389;28;20040;-69
2023/09/27 13:40:47;;;;;;;8.85;6.22;;;;;;;;;;5093427;28;20085;-69
2023/09/27 13:43:14;;;;;;;11.40;6.53;;;;;;;;;;5083041;28;20032;-69
2023/09/27 13:45:41;;;;;;;8.90;5.65;;;;;;;;;;5089323;28;20090;-69
2023/09/27 13:48:07;;;;;;;8.27;5.70;;;;;;;;;;5090906;28;20121;-69
2023/09/27 13:50:35;;;;;;;7.32;6.32;;;;;;;;;;5083264;28;20039;-69
2023/09/27 13:53:01;;;;;;;8.07;5.68;;;;;;;;;;5089910;28;20036;-69
2023/09/27 13:55:27;;;;;;;8.98;5.40;;;;;;;;;;5087514;28;20035;-69
2023/09/27 13:57:53;;;;;;;8.48;5.00;;;;;;;;;;5089819;28;20535;-69
2023/09/27 14:00:19;;;;;;;6.78;4.60;;;;;;;;;;5089315;28;20036;-69
2023/09/27 14:02:45;;;;;;;7.97;4.85;;;;;;;;;;5085880;28;20573;-69
2023/09/27 14:05:11;;;;;;;5.75;4.68;;;;;;;;;;5089440;28;20089;-69
2023/09/27 14:07:39;;;;;;;6.22;4.80;;;;;;;;;;5090402;28;20077;-69
2023/09/27 14:10:05;;;;;;;6.00;4.40;;;;;;;;;;5086136;28;20515;-69
2023/09/27 14:12:31;;;;;;;6.32;4.75;;;;;;;;;;5090752;28;20040;-69
2023/09/27 14:14:58;;;;;;;6.68;4.60;;;;;;;;;;5082072;28;20562;-69
2023/09/27 14:17:24;;;;;;;7.63;4.20;;;;;;;;;;5082935;22;20135;-72
2023/09/27 14:19:50;;;;;;;6.43;4.15;;;;;;;;;;5051858;28;20159;-72